createdAt,value
2018-06-17T00:00:44.448Z,17.44
2018-06-17T00:01:44.423Z,17.55
2018-06-17T00:02:44.413Z,17.56
2018-06-17T00:03:44.396Z,17.64
2018-06-17T00:04:44.385Z,17.64
2018-06-17T00:05:44.366Z,17.64
2018-06-17T00:06:44.351Z,17.77
2018-06-17T00:07:44.339Z,17.74
2018-06-17T00:08:44.325Z,17.72
2018-06-17T00:09:44.313Z,17.71
2018-06-17T00:10:44.350Z,17.78
2018-06-17T00:11:44.290Z,17.72
2018-06-17T00:12:44.268Z,17.75
2018-06-17T00:13:44.262Z,17.66
2018-06-17T00:14:44.240Z,17.68
2018-06-17T00:15:44.229Z,17.64
2018-06-17T00:16:44.218Z,17.68
2018-06-17T00:17:44.208Z,17.70
2018-06-17T00:18:44.200Z,17.64
2018-06-17T00:19:44.170Z,17.70
2018-06-17T00:20:44.154Z,17.64
2018-06-17T00:21:44.143Z,17.68
2018-06-17T00:22:44.128Z,17.70
2018-06-17T00:23:44.122Z,17.56
2018-06-17T00:24:44.098Z,17.43
2018-06-17T00:25:44.086Z,17.48
2018-06-17T00:26:44.169Z,17.43
2018-06-17T00:27:44.059Z,17.49
2018-06-17T00:28:44.043Z,17.48
2018-06-17T00:29:44.029Z,17.48
2018-06-17T00:30:44.021Z,17.46
2018-06-17T00:31:43.999Z,17.25
2018-06-17T00:32:43.986Z,17.33
2018-06-17T00:33:43.975Z,17.31
2018-06-17T00:34:43.956Z,17.19
2018-06-17T00:35:43.942Z,17.36
2018-06-17T00:36:43.931Z,17.22
2018-06-17T00:37:43.915Z,17.31
2018-06-17T00:38:43.900Z,17.22
2018-06-17T00:39:43.888Z,17.21
2018-06-17T00:40:43.876Z,17.21
2018-06-17T00:41:43.859Z,17.19
2018-06-17T00:42:43.942Z,17.26
2018-06-17T00:43:43.829Z,17.21
2018-06-17T00:44:43.817Z,17.22
2018-06-17T00:45:43.803Z,17.16
2018-06-17T00:46:43.790Z,17.11
2018-06-17T00:47:43.783Z,17.11
2018-06-17T00:48:43.758Z,17.11
2018-06-17T00:49:43.749Z,17.01
2018-06-17T00:50:43.728Z,16.96
2018-06-17T00:51:43.721Z,16.97
2018-06-17T00:52:43.701Z,16.94
2018-06-17T00:53:43.687Z,16.93
2018-06-17T00:54:43.679Z,16.94
2018-06-17T00:55:43.659Z,16.91
2018-06-17T00:56:43.646Z,16.93
2018-06-17T00:57:43.630Z,16.94
2018-06-17T00:58:43.615Z,16.98
2018-06-17T00:59:43.600Z,16.83
2018-06-17T01:00:43.589Z,16.60
2018-06-17T01:01:43.576Z,16.67
2018-06-17T01:02:43.566Z,16.66
2018-06-17T01:03:43.556Z,16.58
2018-06-17T01:04:43.529Z,16.57
2018-06-17T01:05:43.517Z,16.58
2018-06-17T01:06:43.504Z,16.58
2018-06-17T01:07:43.492Z,16.53
2018-06-17T01:08:43.478Z,16.57
2018-06-17T01:09:43.508Z,16.45
2018-06-17T01:10:43.444Z,16.31
2018-06-17T01:11:43.429Z,16.25
2018-06-17T01:12:43.418Z,16.24
2018-06-17T01:13:43.400Z,16.27
2018-06-17T01:14:43.385Z,16.24
2018-06-17T01:15:43.375Z,16.25
2018-06-17T01:16:43.359Z,16.30
2018-06-17T01:17:43.344Z,16.28
2018-06-17T01:18:43.328Z,16.33
2018-06-17T01:19:43.318Z,16.43
2018-06-17T01:20:43.298Z,16.43
2018-06-17T01:21:43.299Z,16.28
2018-06-17T01:22:43.277Z,16.46
2018-06-17T01:23:43.258Z,16.42
2018-06-17T01:24:43.242Z,16.46
2018-06-17T01:25:43.381Z,16.42
2018-06-17T01:26:43.216Z,16.25
2018-06-17T01:27:43.207Z,16.11
2018-06-17T01:28:43.187Z,16.15
2018-06-17T01:29:43.169Z,16.14
2018-06-17T01:30:43.162Z,16.11
2018-06-17T01:31:43.142Z,16.15
2018-06-17T01:32:43.128Z,16.25
2018-06-17T01:33:43.115Z,16.25
2018-06-17T01:34:43.100Z,16.28
2018-06-17T01:35:43.087Z,16.20
2018-06-17T01:36:43.070Z,16.27
2018-06-17T01:37:43.067Z,16.30
2018-06-17T01:38:43.040Z,16.21
2018-06-17T01:39:43.037Z,16.23
2018-06-17T01:40:43.010Z,16.25
2018-06-17T01:41:43.006Z,16.25
2018-06-17T01:42:42.983Z,16.25
2018-06-17T01:43:42.968Z,16.15
2018-06-17T01:44:42.961Z,16.08
2018-06-17T01:45:42.947Z,16.20
2018-06-17T01:46:42.923Z,16.14
2018-06-17T01:47:42.914Z,16.09
2018-06-17T01:48:42.901Z,16.11
2018-06-17T01:49:42.880Z,16.09
2018-06-17T01:50:42.914Z,16.07
2018-06-17T01:51:42.853Z,16.02
2018-06-17T01:52:42.946Z,16.04
2018-06-17T01:53:42.825Z,16.04
2018-06-17T01:54:42.812Z,16.12
2018-06-17T01:55:42.792Z,16.08
2018-06-17T01:56:42.775Z,16.04
2018-06-17T01:57:42.767Z,16.04
2018-06-17T01:58:42.747Z,16.05
2018-06-17T01:59:42.736Z,16.02
2018-06-17T02:00:42.721Z,16.01
2018-06-17T02:01:42.702Z,16.04
2018-06-17T02:02:42.786Z,16.02
2018-06-17T02:03:42.672Z,16.02
2018-06-17T02:04:42.658Z,15.96
2018-06-17T02:05:42.649Z,15.90
2018-06-17T02:06:42.629Z,15.93
2018-06-17T02:07:42.618Z,15.92
2018-06-17T02:08:42.599Z,15.86
2018-06-17T02:09:42.588Z,15.72
2018-06-17T02:10:42.565Z,15.75
2018-06-17T02:11:42.554Z,15.65
2018-06-17T02:12:42.547Z,15.64
2018-06-17T02:13:42.529Z,15.68
2018-06-17T02:14:42.507Z,15.59
2018-06-17T02:15:42.494Z,15.60
2018-06-17T02:16:42.480Z,15.60
2018-06-17T02:17:42.468Z,15.57
2018-06-17T02:18:42.460Z,15.49
2018-06-17T02:19:42.436Z,15.62
2018-06-17T02:20:42.418Z,15.64
2018-06-17T02:21:42.458Z,15.59
2018-06-17T02:22:42.388Z,15.60
2018-06-17T02:23:42.379Z,15.50
2018-06-17T02:24:42.357Z,15.64
2018-06-17T02:25:42.341Z,15.54
2018-06-17T02:26:42.329Z,15.65
2018-06-17T02:27:42.318Z,15.51
2018-06-17T02:28:42.298Z,15.60
2018-06-17T02:29:42.284Z,15.59
2018-06-17T02:30:42.269Z,15.56
2018-06-17T02:31:42.264Z,15.57
2018-06-17T02:32:42.237Z,15.60
2018-06-17T02:33:42.220Z,15.46
2018-06-17T02:34:42.205Z,15.41
2018-06-17T02:35:42.195Z,15.41
2018-06-17T02:36:42.179Z,15.46
2018-06-17T02:37:42.302Z,15.41
2018-06-17T02:38:42.147Z,15.39
2018-06-17T02:39:42.135Z,15.32
2018-06-17T02:40:42.118Z,15.35
2018-06-17T02:41:42.100Z,15.32
2018-06-17T02:42:42.090Z,15.34
2018-06-17T02:43:42.069Z,15.27
2018-06-17T02:44:42.055Z,15.38
2018-06-17T02:45:42.042Z,15.36
2018-06-17T02:46:42.026Z,15.39
2018-06-17T02:47:42.007Z,15.39
2018-06-17T02:48:42.000Z,15.44
2018-06-17T02:49:41.978Z,15.39
2018-06-17T02:50:41.961Z,15.43
2018-06-17T02:51:41.951Z,15.34
2018-06-17T02:52:41.936Z,15.32
2018-06-17T02:53:41.923Z,15.28
2018-06-17T02:54:41.900Z,15.36
2018-06-17T02:55:41.890Z,15.38
2018-06-17T02:56:41.877Z,15.36
2018-06-17T02:57:41.859Z,15.21
2018-06-17T02:58:41.841Z,15.29
2018-06-17T02:59:41.834Z,15.34
2018-06-17T03:00:41.810Z,15.20
2018-06-17T03:01:41.804Z,15.14
2018-06-17T03:02:41.782Z,15.28
2018-06-17T03:03:41.833Z,15.27
2018-06-17T03:04:41.791Z,15.28
2018-06-17T03:05:41.744Z,15.32
2018-06-17T03:06:41.720Z,15.29
2018-06-17T03:07:41.706Z,15.34
2018-06-17T03:08:41.692Z,15.35
2018-06-17T03:09:41.678Z,15.38
2018-06-17T03:10:41.659Z,15.36
2018-06-17T03:11:41.643Z,15.38
2018-06-17T03:12:41.628Z,15.36
2018-06-17T03:13:41.611Z,15.29
2018-06-17T03:14:41.598Z,15.28
2018-06-17T03:15:41.583Z,15.25
2018-06-17T03:16:41.569Z,15.23
2018-06-17T03:17:41.551Z,15.20
2018-06-17T03:18:41.536Z,15.19
2018-06-17T03:19:41.520Z,15.20
2018-06-17T03:20:41.563Z,15.13
2018-06-17T03:21:41.490Z,15.17
2018-06-17T03:22:41.474Z,15.07
2018-06-17T03:23:41.509Z,14.98
2018-06-17T03:24:41.469Z,15.07
2018-06-17T03:25:41.433Z,15.11
2018-06-17T03:26:41.413Z,15.02
2018-06-17T03:27:41.400Z,15.13
2018-06-17T03:28:41.383Z,15.02
2018-06-17T03:29:41.372Z,15.07
2018-06-17T03:30:41.354Z,15.07
2018-06-17T03:31:41.335Z,14.99
2018-06-17T03:32:41.325Z,15.01
2018-06-17T03:33:41.313Z,15.10
2018-06-17T03:34:41.290Z,15.13
2018-06-17T03:35:41.277Z,15.14
2018-06-17T03:36:41.260Z,15.09
2018-06-17T03:37:41.249Z,15.02
2018-06-17T03:38:41.228Z,15.07
2018-06-17T03:39:41.213Z,15.11
2018-06-17T03:40:41.201Z,15.09
2018-06-17T03:41:41.184Z,15.17
2018-06-17T03:42:41.168Z,15.14
2018-06-17T03:43:41.152Z,15.17
2018-06-17T03:44:41.150Z,15.16
2018-06-17T03:45:41.120Z,15.11
2018-06-17T03:46:41.104Z,15.19
2018-06-17T03:47:41.189Z,15.23
2018-06-17T03:48:41.073Z,15.28
2018-06-17T03:49:41.062Z,15.34
2018-06-17T03:50:41.051Z,15.43
2018-06-17T03:51:41.030Z,15.41
2018-06-17T03:52:41.016Z,15.46
2018-06-17T03:53:41.002Z,15.56
2018-06-17T03:54:40.979Z,15.56
2018-06-17T03:55:41.115Z,15.46
2018-06-17T03:56:40.949Z,15.47
2018-06-17T03:57:40.942Z,15.56
2018-06-17T03:58:40.920Z,15.51
2018-06-17T03:59:40.905Z,15.67
2018-06-17T04:00:40.890Z,15.54
2018-06-17T04:01:40.878Z,15.60
2018-06-17T04:02:40.856Z,15.60
2018-06-17T04:03:40.952Z,15.65
2018-06-17T04:04:40.827Z,15.54
2018-06-17T04:05:40.815Z,15.51
2018-06-17T04:06:40.798Z,15.64
2018-06-17T04:07:40.779Z,15.64
2018-06-17T04:08:40.774Z,15.68
2018-06-17T04:09:40.760Z,15.62
2018-06-17T04:10:40.749Z,15.64
2018-06-17T04:11:40.720Z,15.54
2018-06-17T04:12:40.709Z,15.65
2018-06-17T04:13:40.691Z,15.67
2018-06-17T04:14:40.676Z,15.68
2018-06-17T04:15:40.661Z,15.62
2018-06-17T04:16:40.643Z,15.69
2018-06-17T04:17:40.632Z,15.69
2018-06-17T04:18:40.614Z,15.76
2018-06-17T04:19:40.601Z,15.80
2018-06-17T04:20:40.582Z,15.82
2018-06-17T04:21:40.569Z,15.80
2018-06-17T04:22:40.601Z,15.84
2018-06-17T04:23:40.540Z,15.69
2018-06-17T04:24:40.520Z,15.76
2018-06-17T04:25:40.557Z,15.80
2018-06-17T04:26:40.495Z,15.80
2018-06-17T04:27:40.485Z,15.82
2018-06-17T04:28:40.460Z,15.92
2018-06-17T04:29:40.454Z,15.90
2018-06-17T04:30:40.434Z,15.89
2018-06-17T04:31:40.420Z,15.92
2018-06-17T04:32:40.416Z,15.92
2018-06-17T04:33:40.387Z,16.01
2018-06-17T04:34:40.367Z,15.97
2018-06-17T04:35:40.457Z,15.94
2018-06-17T04:36:40.340Z,16.00
2018-06-17T04:37:40.324Z,15.89
2018-06-17T04:38:40.312Z,15.87
2018-06-17T04:39:40.300Z,15.89
2018-06-17T04:40:40.279Z,15.86
2018-06-17T04:41:40.261Z,15.78
2018-06-17T04:42:40.249Z,15.86
2018-06-17T04:43:40.233Z,15.89
2018-06-17T04:44:40.218Z,15.80
2018-06-17T04:45:40.199Z,15.83
2018-06-17T04:46:40.284Z,15.67
2018-06-17T04:47:40.172Z,15.76
2018-06-17T04:48:40.160Z,15.74
2018-06-17T04:49:40.140Z,15.67
2018-06-17T04:50:40.127Z,15.69
2018-06-17T04:51:40.110Z,15.68
2018-06-17T04:52:40.097Z,15.74
2018-06-17T04:53:40.079Z,15.75
2018-06-17T04:54:40.062Z,15.78
2018-06-17T04:55:40.053Z,15.71
2018-06-17T04:56:40.033Z,15.78
2018-06-17T04:57:40.023Z,15.72
2018-06-17T04:58:40.006Z,15.72
2018-06-17T04:59:39.988Z,15.67
2018-06-17T05:00:39.971Z,15.68
2018-06-17T05:01:39.963Z,15.69
2018-06-17T05:02:39.947Z,15.82
2018-06-17T05:03:39.924Z,15.80
2018-06-17T05:04:39.910Z,15.92
2018-06-17T05:05:39.944Z,15.90
2018-06-17T05:06:39.880Z,15.93
2018-06-17T05:07:39.867Z,16.00
2018-06-17T05:08:39.850Z,16.01
2018-06-17T05:09:39.831Z,16.01
2018-06-17T05:10:39.819Z,16.04
2018-06-17T05:11:39.803Z,16.00
2018-06-17T05:12:39.787Z,16.00
2018-06-17T05:13:39.773Z,16.04
2018-06-17T05:14:39.764Z,16.04
2018-06-17T05:15:39.741Z,16.14
2018-06-17T05:16:39.729Z,16.07
2018-06-17T05:17:39.710Z,16.17
2018-06-17T05:18:39.698Z,16.12
2018-06-17T05:19:39.682Z,16.14
2018-06-17T05:20:39.670Z,16.09
2018-06-17T05:21:39.758Z,16.12
2018-06-17T05:22:39.633Z,16.14
2018-06-17T05:23:39.620Z,16.12
2018-06-17T05:24:39.653Z,16.15
2018-06-17T05:25:39.590Z,16.09
2018-06-17T05:26:39.579Z,16.24
2018-06-17T05:27:39.566Z,16.21
2018-06-17T05:28:39.543Z,16.27
2018-06-17T05:29:39.532Z,16.24
2018-06-17T05:30:39.512Z,16.28
2018-06-17T05:31:39.496Z,16.23
2018-06-17T05:32:39.480Z,16.31
2018-06-17T05:33:39.490Z,16.27
2018-06-17T05:34:39.451Z,16.31
2018-06-17T05:35:39.446Z,16.30
2018-06-17T05:36:39.453Z,16.35
2018-06-17T05:37:39.407Z,16.42
2018-06-17T05:38:39.390Z,16.45
2018-06-17T05:39:39.375Z,16.45
2018-06-17T05:40:39.362Z,16.46
2018-06-17T05:41:39.341Z,16.48
2018-06-17T05:42:39.329Z,16.53
2018-06-17T05:43:39.319Z,16.56
2018-06-17T05:44:39.297Z,16.50
2018-06-17T05:45:39.481Z,16.58
2018-06-17T05:46:39.265Z,16.67
2018-06-17T05:47:39.253Z,16.66
2018-06-17T05:48:39.278Z,16.68
2018-06-17T05:49:39.219Z,16.70
2018-06-17T05:50:39.204Z,16.70
2018-06-17T05:51:39.240Z,16.76
2018-06-17T05:52:39.180Z,16.75
2018-06-17T05:53:39.160Z,16.83
2018-06-17T05:54:39.146Z,16.86
2018-06-17T05:55:39.150Z,16.70
2018-06-17T05:56:39.110Z,16.85
2018-06-17T05:57:39.099Z,16.76
2018-06-17T05:58:39.083Z,16.82
2018-06-17T05:59:39.068Z,16.85
2018-06-17T06:00:39.050Z,16.82
2018-06-17T06:01:39.034Z,16.89
2018-06-17T06:02:39.022Z,16.81
2018-06-17T06:03:39.004Z,16.89
2018-06-17T06:04:39.034Z,16.94
2018-06-17T06:05:38.971Z,16.93
2018-06-17T06:06:38.957Z,16.98
2018-06-17T06:07:38.990Z,17.03
2018-06-17T06:08:38.933Z,17.06
2018-06-17T06:09:38.913Z,17.06
2018-06-17T06:10:38.894Z,17.15
2018-06-17T06:11:38.879Z,17.15
2018-06-17T06:12:38.867Z,17.11
2018-06-17T06:13:38.848Z,17.11
2018-06-17T06:14:38.837Z,17.07
2018-06-17T06:15:38.819Z,17.12
2018-06-17T06:16:38.808Z,17.21
2018-06-17T06:17:38.790Z,17.22
2018-06-17T06:18:38.774Z,17.16
2018-06-17T06:19:38.758Z,17.21
2018-06-17T06:20:38.747Z,17.30
2018-06-17T06:21:38.729Z,17.19
2018-06-17T06:22:38.709Z,17.28
2018-06-17T06:23:38.695Z,17.31
2018-06-17T06:24:38.722Z,17.40
2018-06-17T06:25:38.674Z,17.26
2018-06-17T06:26:38.663Z,17.23
2018-06-17T06:27:38.640Z,17.33
2018-06-17T06:28:38.656Z,17.40
2018-06-17T06:29:38.608Z,17.23
2018-06-17T06:30:38.592Z,17.38
2018-06-17T06:31:38.663Z,17.51
2018-06-17T06:32:38.561Z,17.43
2018-06-17T06:33:38.545Z,17.48
2018-06-17T06:34:38.582Z,17.44
2018-06-17T06:35:38.514Z,17.49
2018-06-17T06:36:38.497Z,17.54
2018-06-17T06:37:38.486Z,17.49
2018-06-17T06:38:38.468Z,17.49
2018-06-17T06:39:38.452Z,17.54
2018-06-17T06:40:38.438Z,17.56
2018-06-17T06:41:38.421Z,17.54
2018-06-17T06:42:38.422Z,17.56
2018-06-17T06:43:38.393Z,17.56
2018-06-17T06:44:38.377Z,17.64
2018-06-17T06:45:38.367Z,17.59
2018-06-17T06:46:38.350Z,17.66
2018-06-17T06:47:38.431Z,17.74
2018-06-17T06:48:38.320Z,17.66
2018-06-17T06:49:38.303Z,17.63
2018-06-17T06:50:38.389Z,17.63
2018-06-17T06:51:38.276Z,17.70
2018-06-17T06:52:38.259Z,17.72
2018-06-17T06:53:38.251Z,17.78
2018-06-17T06:54:38.231Z,17.82
2018-06-17T06:55:38.212Z,17.81
2018-06-17T06:56:38.198Z,17.86
2018-06-17T06:57:38.190Z,17.93
2018-06-17T06:58:38.168Z,17.96
2018-06-17T06:59:38.151Z,17.93
2018-06-17T07:00:38.143Z,17.84
2018-06-17T07:01:38.126Z,17.92
2018-06-17T07:02:38.109Z,17.99
2018-06-17T07:03:38.094Z,17.89
2018-06-17T07:04:38.077Z,17.97
2018-06-17T07:05:38.075Z,18.02
2018-06-17T07:06:38.096Z,18.07
2018-06-17T07:07:38.036Z,18.07
2018-06-17T07:08:38.016Z,17.96
2018-06-17T07:09:38.001Z,17.97
2018-06-17T07:10:37.986Z,17.90
2018-06-17T07:11:37.971Z,17.95
2018-06-17T07:12:37.955Z,17.95
2018-06-17T07:13:37.950Z,17.97
2018-06-17T07:14:37.972Z,18.11
2018-06-17T07:15:37.910Z,18.10
2018-06-17T07:16:37.895Z,18.21
2018-06-17T07:17:37.886Z,18.12
2018-06-17T07:18:37.864Z,18.17
2018-06-17T07:19:37.848Z,18.17
2018-06-17T07:20:37.836Z,18.27
2018-06-17T07:21:37.820Z,18.21
2018-06-17T07:22:37.815Z,18.27
2018-06-17T07:23:37.788Z,18.26
2018-06-17T07:24:37.780Z,18.29
2018-06-17T07:25:37.760Z,18.29
2018-06-17T07:26:37.747Z,18.23
2018-06-17T07:27:37.732Z,18.33
2018-06-17T07:28:37.715Z,18.32
2018-06-17T07:29:37.698Z,18.50
2018-06-17T07:30:37.837Z,18.58
2018-06-17T07:31:37.671Z,18.51
2018-06-17T07:32:37.703Z,18.58
2018-06-17T07:33:37.699Z,18.65
2018-06-17T07:34:37.635Z,18.60
2018-06-17T07:35:37.620Z,18.58
2018-06-17T07:36:37.604Z,18.67
2018-06-17T07:37:37.580Z,18.75
2018-06-17T07:38:37.565Z,18.85
2018-06-17T07:39:37.561Z,18.88
2018-06-17T07:40:37.541Z,18.80
2018-06-17T07:41:37.521Z,18.84
2018-06-17T07:42:37.506Z,18.78
2018-06-17T07:43:37.491Z,18.80
2018-06-17T07:44:37.484Z,18.76
2018-06-17T07:45:37.467Z,18.76
2018-06-17T07:46:37.446Z,18.70
2018-06-17T07:47:37.454Z,18.67
2018-06-17T07:48:37.429Z,18.73
2018-06-17T07:49:37.411Z,18.75
2018-06-17T07:50:37.388Z,18.81
2018-06-17T07:51:37.372Z,18.81
2018-06-17T07:52:37.359Z,18.91
2018-06-17T07:53:37.348Z,18.95
2018-06-17T07:54:37.338Z,18.99
2018-06-17T07:55:37.320Z,18.90
2018-06-17T07:56:37.314Z,18.81
2018-06-17T07:57:37.293Z,18.91
2018-06-17T07:58:37.270Z,18.95
2018-06-17T07:59:37.260Z,19.02
2018-06-17T08:00:37.247Z,19.22
2018-06-17T08:01:37.231Z,19.22
2018-06-17T08:02:37.216Z,19.23
2018-06-17T08:03:37.200Z,19.25
2018-06-17T08:04:37.213Z,19.26
2018-06-17T08:05:37.171Z,19.39
2018-06-17T08:06:37.159Z,19.37
2018-06-17T08:07:37.146Z,19.37
2018-06-17T08:08:37.124Z,19.44
2018-06-17T08:09:37.112Z,19.40
2018-06-17T08:10:37.096Z,19.41
2018-06-17T08:11:37.093Z,19.46
2018-06-17T08:12:37.071Z,19.37
2018-06-17T08:13:37.064Z,19.40
2018-06-17T08:14:37.049Z,19.28
2018-06-17T08:15:37.026Z,19.31
2018-06-17T08:16:37.114Z,19.18
2018-06-17T08:17:37.003Z,19.28
2018-06-17T08:18:36.978Z,19.29
2018-06-17T08:19:36.968Z,19.43
2018-06-17T08:20:36.954Z,19.44
2018-06-17T08:21:36.936Z,19.44
2018-06-17T08:22:36.939Z,19.37
2018-06-17T08:23:36.909Z,19.46
2018-06-17T08:24:36.900Z,19.44
2018-06-17T08:25:36.887Z,19.37
2018-06-17T08:26:36.878Z,19.32
2018-06-17T08:27:36.859Z,19.31
2018-06-17T08:28:36.839Z,19.32
2018-06-17T08:29:36.834Z,19.37
2018-06-17T08:30:36.811Z,19.59
2018-06-17T08:31:36.796Z,19.46
2018-06-17T08:32:36.940Z,19.43
2018-06-17T08:33:36.767Z,19.62
2018-06-17T08:34:36.755Z,19.73
2018-06-17T08:35:36.790Z,19.87
2018-06-17T08:36:36.722Z,19.77
2018-06-17T08:37:36.712Z,19.73
2018-06-17T08:38:36.698Z,19.69
2018-06-17T08:39:36.689Z,19.63
2018-06-17T08:40:36.682Z,19.65
2018-06-17T08:41:36.653Z,19.66
2018-06-17T08:42:36.643Z,19.68
2018-06-17T08:43:36.627Z,19.73
2018-06-17T08:44:36.611Z,19.98
2018-06-17T08:45:36.598Z,19.95
2018-06-17T08:46:36.580Z,19.98
2018-06-17T08:47:36.569Z,20.05
2018-06-17T08:48:36.556Z,20.05
2018-06-17T08:49:36.541Z,19.87
2018-06-17T08:50:36.533Z,19.86
2018-06-17T08:51:36.519Z,19.80
2018-06-17T08:52:36.500Z,19.63
2018-06-17T08:53:36.494Z,19.46
2018-06-17T08:54:36.481Z,19.32
2018-06-17T08:55:36.460Z,19.22
2018-06-17T08:56:36.494Z,19.14
2018-06-17T08:57:36.432Z,19.08
2018-06-17T08:58:36.415Z,19.08
2018-06-17T08:59:36.402Z,19.06
2018-06-17T09:00:36.400Z,19.06
2018-06-17T09:01:36.375Z,18.91
2018-06-17T09:02:36.369Z,18.94
2018-06-17T09:03:36.350Z,18.90
2018-06-17T09:04:36.331Z,18.88
2018-06-17T09:05:36.318Z,18.99
2018-06-17T09:06:36.309Z,18.99
2018-06-17T09:07:36.294Z,18.92
2018-06-17T09:08:36.273Z,18.99
2018-06-17T09:09:36.260Z,19.00
2018-06-17T09:10:36.248Z,19.04
2018-06-17T09:11:36.229Z,19.06
2018-06-17T09:12:36.223Z,19.06
2018-06-17T09:13:36.202Z,18.92
2018-06-17T09:14:36.184Z,18.99
2018-06-17T09:15:36.279Z,19.06
2018-06-17T09:16:36.163Z,18.95
2018-06-17T09:17:36.145Z,18.88
2018-06-17T09:18:36.130Z,18.90
2018-06-17T09:19:36.114Z,18.99
2018-06-17T09:20:36.106Z,19.00
2018-06-17T09:21:36.093Z,18.92
2018-06-17T09:22:36.081Z,19.02
2018-06-17T09:23:36.069Z,18.99
2018-06-17T09:24:36.054Z,19.16
2018-06-17T09:25:36.030Z,19.16
2018-06-17T09:26:36.020Z,19.25
2018-06-17T09:27:36.000Z,19.31
2018-06-17T09:28:35.997Z,19.33
2018-06-17T09:29:35.983Z,19.40
2018-06-17T09:30:35.959Z,19.55
2018-06-17T09:31:35.980Z,19.51
2018-06-17T09:32:35.934Z,19.63
2018-06-17T09:33:35.915Z,19.55
2018-06-17T09:34:35.937Z,19.50
2018-06-17T09:35:35.898Z,19.37
2018-06-17T09:36:35.876Z,19.26
2018-06-17T09:37:35.862Z,19.43
2018-06-17T09:38:35.848Z,19.46
2018-06-17T09:39:35.834Z,19.41
2018-06-17T09:40:35.816Z,19.51
2018-06-17T09:41:35.803Z,19.47
2018-06-17T09:42:35.800Z,19.47
2018-06-17T09:43:35.776Z,19.55
2018-06-17T09:44:35.761Z,19.44
2018-06-17T09:45:35.752Z,19.44
2018-06-17T09:46:35.731Z,19.50
2018-06-17T09:47:35.736Z,19.54
2018-06-17T09:48:35.707Z,19.56
2018-06-17T09:49:35.693Z,19.66
2018-06-17T09:50:35.681Z,19.61
2018-06-17T09:51:35.682Z,19.56
2018-06-17T09:52:35.653Z,19.62
2018-06-17T09:53:35.640Z,19.59
2018-06-17T09:54:35.620Z,19.58
2018-06-17T09:55:35.618Z,19.62
2018-06-17T09:56:35.592Z,19.58
2018-06-17T09:57:35.582Z,19.56
2018-06-17T09:58:35.649Z,19.68
2018-06-17T09:59:35.553Z,19.73
2018-06-17T10:00:35.541Z,19.69
2018-06-17T10:01:35.539Z,19.80
2018-06-17T10:02:35.507Z,19.81
2018-06-17T10:03:35.497Z,19.95
2018-06-17T10:04:35.480Z,19.99
2018-06-17T10:05:35.466Z,20.02
2018-06-17T10:06:35.457Z,19.84
2018-06-17T10:07:35.435Z,19.86
2018-06-17T10:08:35.420Z,19.81
2018-06-17T10:09:35.406Z,19.80
2018-06-17T10:10:35.395Z,19.83
2018-06-17T10:11:35.378Z,19.63
2018-06-17T10:12:35.369Z,19.65
2018-06-17T10:13:35.354Z,19.59
2018-06-17T10:14:35.340Z,19.59
2018-06-17T10:15:35.321Z,19.61
2018-06-17T10:16:35.311Z,19.63
2018-06-17T10:17:35.307Z,19.74
2018-06-17T10:18:35.291Z,19.65
2018-06-17T10:19:35.269Z,19.68
2018-06-17T10:20:35.254Z,19.81
2018-06-17T10:21:35.242Z,19.73
2018-06-17T10:22:35.228Z,19.66
2018-06-17T10:23:35.291Z,19.73
2018-06-17T10:24:35.199Z,19.71
2018-06-17T10:25:35.193Z,19.80
2018-06-17T10:26:35.173Z,19.87
2018-06-17T10:27:35.156Z,19.81
2018-06-17T10:28:35.141Z,19.69
2018-06-17T10:29:35.140Z,19.63
2018-06-17T10:30:35.228Z,19.65
2018-06-17T10:31:35.105Z,19.54
2018-06-17T10:32:35.089Z,19.43
2018-06-17T10:33:35.119Z,19.44
2018-06-17T10:34:35.062Z,19.47
2018-06-17T10:35:35.045Z,19.43
2018-06-17T10:36:35.029Z,19.43
2018-06-17T10:37:35.015Z,19.43
2018-06-17T10:38:35.004Z,19.41
2018-06-17T10:39:34.989Z,19.46
2018-06-17T10:40:34.978Z,19.46
2018-06-17T10:41:34.959Z,19.23
2018-06-17T10:42:34.949Z,19.21
2018-06-17T10:43:35.004Z,19.21
2018-06-17T10:44:34.918Z,19.21
2018-06-17T10:45:34.904Z,19.23
2018-06-17T10:46:34.886Z,19.23
2018-06-17T10:47:34.885Z,19.31
2018-06-17T10:48:34.862Z,19.25
2018-06-17T10:49:34.847Z,19.39
2018-06-17T10:50:34.880Z,19.36
2018-06-17T10:51:34.819Z,19.41
2018-06-17T10:52:34.810Z,19.46
2018-06-17T10:53:34.791Z,19.44
2018-06-17T10:54:34.789Z,19.44
2018-06-17T10:55:34.857Z,19.46
2018-06-17T10:56:34.752Z,19.41
2018-06-17T10:57:34.737Z,19.47
2018-06-17T10:58:34.719Z,19.39
2018-06-17T10:59:34.709Z,19.51
2018-06-17T11:00:34.690Z,19.47
2018-06-17T11:01:34.681Z,19.46
2018-06-17T11:02:34.671Z,19.41
2018-06-17T11:03:34.648Z,19.54
2018-06-17T11:04:34.636Z,19.59
2018-06-17T11:05:34.776Z,19.63
2018-06-17T11:06:34.611Z,19.62
2018-06-17T11:07:34.599Z,19.61
2018-06-17T11:08:34.579Z,19.68
2018-06-17T11:09:34.567Z,19.80
2018-06-17T11:10:34.552Z,19.71
2018-06-17T11:11:34.536Z,19.69
2018-06-17T11:12:34.527Z,19.63
2018-06-17T11:13:34.623Z,19.65
2018-06-17T11:14:34.499Z,19.71
2018-06-17T11:15:34.479Z,19.73
2018-06-17T11:16:34.479Z,19.66
2018-06-17T11:17:34.455Z,19.68
2018-06-17T11:18:34.445Z,19.68
2018-06-17T11:19:34.451Z,19.56
2018-06-17T11:20:34.415Z,19.55
2018-06-17T11:21:34.401Z,19.48
2018-06-17T11:22:34.400Z,19.55
2018-06-17T11:23:34.370Z,19.61
2018-06-17T11:24:34.368Z,19.61
2018-06-17T11:25:34.339Z,19.69
2018-06-17T11:26:34.364Z,19.61
2018-06-17T11:27:34.325Z,19.65
2018-06-17T11:28:34.300Z,19.68
2018-06-17T11:29:34.286Z,19.80
2018-06-17T11:30:34.278Z,19.80
2018-06-17T11:31:34.255Z,19.84
2018-06-17T11:32:34.257Z,19.96
2018-06-17T11:33:34.234Z,19.98
2018-06-17T11:34:34.221Z,20.06
2018-06-17T11:35:34.206Z,19.88
2018-06-17T11:36:34.187Z,19.84
2018-06-17T11:37:34.173Z,19.66
2018-06-17T11:38:34.164Z,19.77
2018-06-17T11:39:34.149Z,19.66
2018-06-17T11:40:34.136Z,19.63
2018-06-17T11:41:34.129Z,19.66
2018-06-17T11:42:34.104Z,19.71
2018-06-17T11:43:34.094Z,19.74
2018-06-17T11:44:34.164Z,19.74
2018-06-17T11:45:34.076Z,19.63
2018-06-17T11:46:34.054Z,19.62
2018-06-17T11:47:34.038Z,19.55
2018-06-17T11:48:34.026Z,19.55
2018-06-17T11:49:34.009Z,19.46
2018-06-17T11:50:34.000Z,19.46
2018-06-17T11:51:33.981Z,19.44
2018-06-17T11:52:33.968Z,19.37
2018-06-17T11:53:33.953Z,19.36
2018-06-17T11:54:33.938Z,19.25
2018-06-17T11:55:33.933Z,19.37
2018-06-17T11:56:33.922Z,19.39
2018-06-17T11:57:33.897Z,19.48
2018-06-17T11:58:33.892Z,19.50
2018-06-17T11:59:33.873Z,19.59
2018-06-17T12:00:33.856Z,19.55
2018-06-17T12:01:33.846Z,19.62
2018-06-17T12:02:33.829Z,19.66
2018-06-17T12:03:33.830Z,19.69
2018-06-17T12:04:33.811Z,19.74
2018-06-17T12:05:33.783Z,19.77
2018-06-17T12:06:33.789Z,19.86
2018-06-17T12:07:33.763Z,19.87
2018-06-17T12:08:33.760Z,19.76
2018-06-17T12:09:33.797Z,19.74
2018-06-17T12:10:33.716Z,19.66
2018-06-17T12:11:33.704Z,19.69
2018-06-17T12:12:33.691Z,19.69
2018-06-17T12:13:33.678Z,19.51
2018-06-17T12:14:33.662Z,19.55
2018-06-17T12:15:33.653Z,19.58
2018-06-17T12:16:33.631Z,19.65
2018-06-17T12:17:33.619Z,19.86
2018-06-17T12:18:33.616Z,19.94
2018-06-17T12:19:33.594Z,20.02
2018-06-17T12:20:33.591Z,20.10
2018-06-17T12:21:33.566Z,20.18
2018-06-17T12:22:33.549Z,20.36
2018-06-17T12:23:33.545Z,20.32
2018-06-17T12:24:33.523Z,20.28
2018-06-17T12:25:33.519Z,20.36
2018-06-17T12:26:33.500Z,20.32
2018-06-17T12:27:33.479Z,20.23
2018-06-17T12:28:33.472Z,20.36
2018-06-17T12:29:33.452Z,20.42
2018-06-17T12:30:33.442Z,20.42
2018-06-17T12:31:33.425Z,20.58
2018-06-17T12:32:33.433Z,20.57
2018-06-17T12:33:33.465Z,20.67
2018-06-17T12:34:33.384Z,20.55
2018-06-17T12:35:33.384Z,20.64
2018-06-17T12:36:33.410Z,20.66
2018-06-17T12:37:33.359Z,20.55
2018-06-17T12:38:33.328Z,20.24
2018-06-17T12:39:33.323Z,20.20
2018-06-17T12:40:33.314Z,20.17
2018-06-17T12:41:33.304Z,20.10
2018-06-17T12:42:33.272Z,20.05
2018-06-17T12:43:33.264Z,20.03
2018-06-17T12:44:33.250Z,19.95
2018-06-17T12:45:33.239Z,19.99
2018-06-17T12:46:33.234Z,19.76
2018-06-17T12:47:33.212Z,19.68
2018-06-17T12:48:33.195Z,19.58
2018-06-17T12:49:33.184Z,19.65
2018-06-17T12:50:33.241Z,19.55
2018-06-17T12:51:33.151Z,19.46
2018-06-17T12:52:33.250Z,19.58